createdAt,value
2023-01-17T00:00:38.210Z,91.78
2023-01-17T00:01:38.125Z,92.20
2023-01-17T00:02:38.137Z,91.99
2023-01-17T00:03:46.380Z,91.41
2023-01-17T00:04:45.333Z,90.85
2023-01-17T00:05:38.083Z,90.64
2023-01-17T00:06:45.438Z,91.47
2023-01-17T00:07:38.135Z,90.75
2023-01-17T00:08:38.037Z,90.23
2023-01-17T00:09:38.038Z,89.81
2023-01-17T00:10:38.008Z,89.29
2023-01-17T00:11:38.020Z,89.09
2023-01-17T00:12:37.983Z,88.98
2023-01-17T00:13:38.019Z,89.09
2023-01-17T00:14:37.972Z,89.19
2023-01-17T00:15:37.969Z,89.92
2023-01-17T00:16:37.991Z,89.19
2023-01-17T00:17:37.939Z,89.29
2023-01-17T00:18:37.932Z,88.67
2023-01-17T00:19:37.939Z,88.67
2023-01-17T00:20:37.896Z,88.88
2023-01-17T00:21:37.896Z,88.36
2023-01-17T00:22:37.890Z,88.67
2023-01-17T00:23:37.880Z,88.57
2023-01-17T00:24:37.849Z,88.15
2023-01-17T00:25:37.846Z,88.05
2023-01-17T00:26:37.829Z,87.53
2023-01-17T00:27:37.838Z,87.53
2023-01-17T00:28:37.812Z,87.22
2023-01-17T00:29:37.817Z,86.91
2023-01-17T00:30:37.840Z,87.22
2023-01-17T00:31:37.807Z,86.80
2023-01-17T00:32:37.811Z,86.70
2023-01-17T00:33:37.761Z,87.43
2023-01-17T00:34:37.770Z,87.43
2023-01-17T00:35:37.722Z,87.12
2023-01-17T00:36:37.755Z,87.01
2023-01-17T00:37:37.726Z,87.53
2023-01-17T00:38:37.725Z,88.05
2023-01-17T00:39:37.695Z,86.91
2023-01-17T00:40:37.775Z,86.70
2023-01-17T00:41:37.681Z,87.32
2023-01-17T00:42:37.659Z,87.74
2023-01-17T00:43:37.679Z,86.08
2023-01-17T00:44:37.630Z,85.77
2023-01-17T00:45:37.658Z,85.97
2023-01-17T00:46:37.703Z,86.18
2023-01-17T00:47:37.614Z,85.97
2023-01-17T00:48:37.617Z,86.18
2023-01-17T00:49:37.583Z,86.80
2023-01-17T00:50:37.573Z,85.25
2023-01-17T00:51:37.581Z,85.25
2023-01-17T00:52:37.553Z,85.35
2023-01-17T00:53:37.533Z,85.66
2023-01-17T00:54:37.546Z,85.35
2023-01-17T00:55:37.555Z,85.66
2023-01-17T00:56:37.503Z,86.08
2023-01-17T00:57:37.498Z,86.39
2023-01-17T00:58:37.486Z,86.18
2023-01-17T00:59:37.452Z,87.22
2023-01-17T01:00:37.568Z,87.63
2023-01-17T01:01:37.623Z,86.60
2023-01-17T01:02:37.591Z,86.18
2023-01-17T01:03:37.418Z,86.08
2023-01-17T01:04:37.412Z,86.60
2023-01-17T01:05:37.430Z,85.56
2023-01-17T01:06:37.392Z,86.08
2023-01-17T01:07:37.381Z,85.77
2023-01-17T01:08:37.380Z,85.46
2023-01-17T01:09:37.381Z,85.35
2023-01-17T01:10:37.469Z,86.18
2023-01-17T01:11:37.408Z,85.56
2023-01-17T01:12:37.330Z,85.97
2023-01-17T01:13:37.311Z,85.77
2023-01-17T01:14:37.292Z,86.29
2023-01-17T01:15:37.271Z,86.29
2023-01-17T01:16:37.374Z,86.18
2023-01-17T01:17:37.245Z,85.87
2023-01-17T01:18:37.286Z,85.87
2023-01-17T01:19:37.261Z,85.66
2023-01-17T01:20:37.255Z,85.87
2023-01-17T01:21:37.297Z,86.70
2023-01-17T01:22:37.214Z,87.32
2023-01-17T01:23:37.220Z,87.22
2023-01-17T01:24:37.178Z,87.63
2023-01-17T01:25:37.180Z,86.80
2023-01-17T01:26:37.153Z,87.12
2023-01-17T01:27:37.141Z,87.74
2023-01-17T01:28:37.151Z,87.63
2023-01-17T01:29:37.139Z,87.01
2023-01-17T01:30:37.170Z,87.53
2023-01-17T01:31:37.166Z,87.63
2023-01-17T01:32:37.128Z,87.57
2023-01-17T01:33:37.109Z,87.99
2023-01-17T01:34:37.074Z,88.40
2023-01-17T01:35:37.075Z,87.99
2023-01-17T01:36:37.037Z,88.40
2023-01-17T01:37:37.022Z,89.03
2023-01-17T01:38:37.040Z,89.23
2023-01-17T01:39:37.011Z,89.58
2023-01-17T01:40:37.007Z,89.69
2023-01-17T01:41:37.047Z,89.58
2023-01-17T01:42:36.995Z,90.10
2023-01-17T01:43:36.985Z,90.20
2023-01-17T01:44:36.966Z,90.20
2023-01-17T01:45:37.004Z,90.72
2023-01-17T01:46:36.922Z,90.83
2023-01-17T01:47:36.927Z,90.52
2023-01-17T01:48:40.957Z,90.00
2023-01-17T01:49:36.884Z,90.10
2023-01-17T01:50:36.875Z,89.89
2023-01-17T01:51:36.884Z,89.89
2023-01-17T01:52:36.853Z,90.00
2023-01-17T01:53:36.855Z,90.20
2023-01-17T01:54:36.874Z,90.35
2023-01-17T01:55:36.841Z,90.25
2023-01-17T01:56:36.814Z,90.62
2023-01-17T01:57:36.798Z,90.52
2023-01-17T01:58:36.829Z,90.31
2023-01-17T01:59:36.784Z,90.25
2023-01-17T02:00:36.789Z,90.45
2023-01-17T02:01:37.112Z,90.25
2023-01-17T02:02:36.782Z,90.25
2023-01-17T02:03:36.781Z,90.04
2023-01-17T02:04:36.804Z,90.25
2023-01-17T02:05:36.701Z,90.87
2023-01-17T02:06:36.694Z,90.87
2023-01-17T02:07:36.686Z,91.03
2023-01-17T02:08:36.691Z,90.72
2023-01-17T02:09:36.661Z,90.35
2023-01-17T02:10:36.665Z,90.25
2023-01-17T02:11:43.891Z,89.42
2023-01-17T02:12:44.890Z,89.58
2023-01-17T02:13:43.870Z,89.69
2023-01-17T02:14:36.649Z,90.00
2023-01-17T02:15:36.610Z,89.69
2023-01-17T02:16:36.633Z,89.79
2023-01-17T02:17:36.560Z,89.31
2023-01-17T02:18:36.598Z,89.52
2023-01-17T02:19:36.564Z,89.11
2023-01-17T02:20:36.562Z,88.38
2023-01-17T02:21:36.543Z,88.28
2023-01-17T02:22:36.545Z,88.07
2023-01-17T02:23:36.508Z,87.76
2023-01-17T02:24:36.488Z,87.51
2023-01-17T02:25:36.514Z,87.19
2023-01-17T02:26:36.471Z,87.71
2023-01-17T02:27:36.457Z,88.44
2023-01-17T02:28:36.480Z,88.23
2023-01-17T02:29:36.450Z,87.71
2023-01-17T02:30:36.457Z,87.71
2023-01-17T02:31:36.482Z,87.92
2023-01-17T02:32:36.409Z,87.71
2023-01-17T02:33:36.413Z,88.02
2023-01-17T02:34:36.403Z,86.47
2023-01-17T02:35:36.445Z,86.26
2023-01-17T02:36:36.360Z,86.57
2023-01-17T02:37:36.369Z,87.09
2023-01-17T02:38:37.154Z,87.61
2023-01-17T02:39:58.200Z,86.99
2023-01-17T02:40:36.300Z,87.19
2023-01-17T02:41:38.139Z,87.92
2023-01-17T02:42:37.059Z,86.99
2023-01-17T02:43:36.309Z,85.43
2023-01-17T02:44:40.271Z,85.53
2023-01-17T02:45:57.306Z,85.22
2023-01-17T02:46:40.186Z,85.53
2023-01-17T02:47:58.061Z,85.85
2023-01-17T02:48:40.000Z,85.74
2023-01-17T02:49:36.240Z,86.36
2023-01-17T02:50:36.266Z,85.36
2023-01-17T02:51:36.240Z,84.74
2023-01-17T02:52:36.954Z,85.05
2023-01-17T02:53:36.222Z,85.47
2023-01-17T02:54:36.191Z,84.22
2023-01-17T02:55:36.158Z,84.12
2023-01-17T02:56:36.131Z,84.33
2023-01-17T02:57:36.110Z,83.81
2023-01-17T02:58:36.111Z,83.50
2023-01-17T02:59:36.121Z,83.91
2023-01-17T03:00:36.094Z,84.53
2023-01-17T03:01:36.173Z,83.18
2023-01-17T03:02:36.120Z,82.67
2023-01-17T03:03:36.050Z,82.77
2023-01-17T03:04:36.058Z,82.15
2023-01-17T03:05:36.033Z,82.46
2023-01-17T03:06:36.042Z,83.18
2023-01-17T03:07:36.096Z,82.46
2023-01-17T03:08:36.018Z,83.08
2023-01-17T03:09:36.007Z,82.56
2023-01-17T03:10:36.013Z,82.15
2023-01-17T03:11:35.980Z,82.56
2023-01-17T03:12:35.952Z,81.84
2023-01-17T03:13:35.952Z,81.63
2023-01-17T03:14:35.941Z,81.32
2023-01-17T03:15:35.941Z,81.84
2023-01-17T03:16:35.941Z,82.56
2023-01-17T03:17:35.921Z,81.73
2023-01-17T03:18:35.892Z,81.63
2023-01-17T03:19:35.913Z,81.32
2023-01-17T03:20:35.854Z,81.63
2023-01-17T03:21:35.879Z,81.42
2023-01-17T03:22:35.841Z,80.80
2023-01-17T03:23:35.833Z,81.63
2023-01-17T03:24:35.872Z,81.63
2023-01-17T03:25:35.821Z,82.15
2023-01-17T03:26:35.790Z,82.04
2023-01-17T03:27:35.796Z,82.87
2023-01-17T03:28:35.792Z,83.29
2023-01-17T03:29:35.783Z,82.87
2023-01-17T03:30:35.801Z,81.84
2023-01-17T03:31:35.768Z,82.15
2023-01-17T03:32:35.731Z,82.35
2023-01-17T03:33:35.721Z,81.52
2023-01-17T03:34:35.724Z,81.11
2023-01-17T03:35:35.691Z,81.21
2023-01-17T03:36:35.687Z,80.90
2023-01-17T03:37:35.679Z,81.32
2023-01-17T03:38:35.673Z,81.21
2023-01-17T03:39:35.661Z,81.63
2023-01-17T03:40:35.639Z,81.52
2023-01-17T03:41:35.662Z,81.59
2023-01-17T03:42:35.615Z,81.52
2023-01-17T03:43:35.602Z,81.42
2023-01-17T03:44:35.621Z,81.73
2023-01-17T03:45:35.670Z,82.35
2023-01-17T03:46:35.570Z,82.98
2023-01-17T03:47:35.562Z,84.12
2023-01-17T03:48:35.555Z,82.35
2023-01-17T03:49:35.547Z,82.25
2023-01-17T03:50:35.536Z,81.21
2023-01-17T03:51:35.511Z,81.73
2023-01-17T03:52:35.503Z,81.38
2023-01-17T03:53:35.492Z,81.90
2023-01-17T03:54:35.550Z,81.80
2023-01-17T03:55:35.478Z,81.49
2023-01-17T03:56:35.465Z,81.21
2023-01-17T03:57:35.454Z,81.21
2023-01-17T03:58:35.452Z,81.73
2023-01-17T03:59:35.424Z,81.11
2023-01-17T04:00:35.423Z,81.73
2023-01-17T04:01:35.574Z,82.15
2023-01-17T04:02:35.476Z,82.73
2023-01-17T04:03:35.390Z,81.94
2023-01-17T04:04:35.393Z,81.07
2023-01-17T04:05:35.354Z,80.69
2023-01-17T04:06:35.374Z,81.32
2023-01-17T04:07:35.341Z,81.52
2023-01-17T04:08:35.322Z,81.84
2023-01-17T04:09:35.331Z,82.04
2023-01-17T04:10:35.305Z,82.56
2023-01-17T04:11:35.296Z,81.84
2023-01-17T04:12:35.281Z,81.52
2023-01-17T04:13:35.271Z,81.94
2023-01-17T04:14:35.283Z,81.32
2023-01-17T04:15:35.252Z,80.90
2023-01-17T04:16:35.261Z,80.59
2023-01-17T04:17:35.223Z,80.49
2023-01-17T04:18:42.467Z,81.32
2023-01-17T04:19:43.486Z,81.94
2023-01-17T04:20:35.180Z,80.90
2023-01-17T04:21:35.240Z,80.69
2023-01-17T04:22:35.179Z,81.32
2023-01-17T04:23:35.152Z,81.21
2023-01-17T04:24:35.170Z,81.52
2023-01-17T04:25:35.159Z,81.11
2023-01-17T04:26:35.139Z,80.69
2023-01-17T04:27:35.169Z,81.11
2023-01-17T04:28:35.139Z,80.80
2023-01-17T04:29:35.114Z,81.35
2023-01-17T04:30:35.142Z,81.56
2023-01-17T04:31:35.107Z,81.04
2023-01-17T04:32:35.067Z,81.56
2023-01-17T04:33:35.056Z,81.56
2023-01-17T04:34:35.049Z,81.87
2023-01-17T04:35:35.033Z,81.35
2023-01-17T04:36:35.038Z,81.35
2023-01-17T04:37:35.042Z,80.80
2023-01-17T04:38:35.010Z,80.90
2023-01-17T04:39:35.011Z,80.90
2023-01-17T04:40:34.992Z,80.90
2023-01-17T04:41:34.962Z,81.42
2023-01-17T04:42:34.971Z,80.38
2023-01-17T04:43:34.976Z,80.73
2023-01-17T04:44:34.943Z,81.52
2023-01-17T04:45:34.926Z,82.56
2023-01-17T04:46:34.899Z,82.81
2023-01-17T04:47:34.914Z,83.33
2023-01-17T04:48:34.888Z,82.18
2023-01-17T04:49:34.903Z,81.35
2023-01-17T04:50:34.865Z,81.46
2023-01-17T04:51:34.859Z,82.18
2023-01-17T04:52:34.955Z,82.53
2023-01-17T04:53:34.827Z,83.58
2023-01-17T04:54:34.831Z,82.53
2023-01-17T04:55:34.800Z,82.64
2023-01-17T04:56:34.808Z,82.64
2023-01-17T04:57:34.790Z,81.70
2023-01-17T04:58:34.780Z,81.29
2023-01-17T04:59:34.786Z,81.91
2023-01-17T05:00:34.751Z,82.53
2023-01-17T05:01:34.902Z,82.32
2023-01-17T05:02:34.765Z,82.46
2023-01-17T05:03:34.721Z,82.99
2023-01-17T05:04:34.725Z,82.36
2023-01-17T05:05:34.721Z,81.63
2023-01-17T05:06:34.703Z,81.32
2023-01-17T05:07:35.842Z,81.43
2023-01-17T05:08:34.678Z,82.36
2023-01-17T05:09:34.661Z,82.89
2023-01-17T05:10:34.687Z,83.20
2023-01-17T05:11:34.632Z,82.57
2023-01-17T05:12:34.629Z,81.84
2023-01-17T05:13:34.666Z,82.78
2023-01-17T05:14:34.616Z,82.05
2023-01-17T05:15:34.622Z,83.20
2023-01-17T05:16:34.634Z,83.82
2023-01-17T05:17:34.578Z,83.23
2023-01-17T05:18:34.599Z,82.36
2023-01-17T05:19:34.548Z,82.71
2023-01-17T05:20:34.567Z,82.92
2023-01-17T05:21:34.524Z,83.13
2023-01-17T05:22:34.543Z,82.92
2023-01-17T05:23:34.519Z,83.75
2023-01-17T05:24:34.491Z,83.23
2023-01-17T05:25:34.500Z,82.61
2023-01-17T05:26:34.480Z,82.82
2023-01-17T05:27:34.493Z,83.23
2023-01-17T05:28:34.440Z,81.98
2023-01-17T05:29:34.460Z,81.98
2023-01-17T05:30:34.447Z,82.20
2023-01-17T05:31:34.435Z,82.92
2023-01-17T05:32:34.415Z,81.77
2023-01-17T05:33:34.406Z,81.98
2023-01-17T05:34:34.393Z,82.40
2023-01-17T05:35:34.362Z,83.23
2023-01-17T05:36:34.361Z,83.23
2023-01-17T05:37:34.347Z,83.48
2023-01-17T05:38:34.332Z,84.21
2023-01-17T05:39:34.331Z,84.52
2023-01-17T05:40:34.388Z,84.63
2023-01-17T05:41:34.299Z,84.66
2023-01-17T05:42:34.291Z,84.98
2023-01-17T05:43:34.316Z,84.56
2023-01-17T05:44:34.288Z,84.87
2023-01-17T05:45:34.256Z,84.87
2023-01-17T05:46:34.299Z,85.39
2023-01-17T05:47:34.237Z,85.71
2023-01-17T05:48:34.282Z,85.81
2023-01-17T05:49:34.260Z,86.12
2023-01-17T05:50:34.233Z,85.22
2023-01-17T05:51:34.192Z,84.66
2023-01-17T05:52:34.191Z,83.73
2023-01-17T05:53:34.190Z,83.42
2023-01-17T05:54:34.180Z,84.04
2023-01-17T05:55:34.194Z,84.56
2023-01-17T05:56:34.142Z,84.35
2023-01-17T05:57:34.145Z,84.35
2023-01-17T05:58:34.151Z,84.81
2023-01-17T05:59:37.298Z,84.91
2023-01-17T06:00:34.100Z,84.81
2023-01-17T06:01:34.104Z,84.70
2023-01-17T06:02:34.111Z,84.60
2023-01-17T06:03:34.105Z,84.39
2023-01-17T06:04:34.093Z,84.28
2023-01-17T06:05:34.090Z,85.22
2023-01-17T06:06:34.046Z,85.12
2023-01-17T06:07:34.031Z,85.85
2023-01-17T06:08:33.992Z,85.74
2023-01-17T06:09:34.023Z,85.33
2023-01-17T06:10:34.012Z,85.33
2023-01-17T06:11:34.037Z,85.53
2023-01-17T06:12:33.975Z,85.43
2023-01-17T06:13:33.960Z,84.60
2023-01-17T06:14:33.954Z,84.28
2023-01-17T06:15:33.954Z,83.87
2023-01-17T06:16:33.934Z,83.66
2023-01-17T06:17:33.896Z,83.83
2023-01-17T06:18:33.910Z,84.45
2023-01-17T06:19:33.892Z,85.39
2023-01-17T06:20:33.904Z,84.87
2023-01-17T06:21:33.876Z,84.14
2023-01-17T06:22:33.880Z,84.45
2023-01-17T06:23:33.845Z,84.56
2023-01-17T06:24:33.834Z,85.19
2023-01-17T06:25:34.143Z,85.50
2023-01-17T06:26:33.807Z,84.11
2023-01-17T06:27:33.797Z,83.37
2023-01-17T06:28:33.811Z,83.37
2023-01-17T06:29:33.791Z,83.17
2023-01-17T06:30:33.794Z,83.06
2023-01-17T06:31:33.835Z,83.27
2023-01-17T06:32:33.761Z,83.58
2023-01-17T06:33:33.833Z,83.58
2023-01-17T06:34:33.744Z,83.48
2023-01-17T06:35:33.740Z,83.69
2023-01-17T06:36:33.725Z,83.58
2023-01-17T06:37:33.694Z,84.04
2023-01-17T06:38:33.696Z,83.83
2023-01-17T06:39:33.684Z,84.04
2023-01-17T06:40:33.692Z,84.14
2023-01-17T06:41:33.662Z,83.83
2023-01-17T06:42:33.646Z,83.73
2023-01-17T06:43:33.712Z,84.04
2023-01-17T06:44:33.664Z,83.73
2023-01-17T06:45:33.698Z,84.04
2023-01-17T06:46:33.628Z,84.14
2023-01-17T06:47:33.607Z,83.94
2023-01-17T06:48:33.571Z,84.04
2023-01-17T06:49:33.553Z,84.04
2023-01-17T06:50:33.558Z,83.62
2023-01-17T06:51:33.579Z,83.52
2023-01-17T06:52:33.513Z,83.73
2023-01-17T06:53:33.535Z,84.14
2023-01-17T06:54:33.567Z,83.73
2023-01-17T06:55:33.542Z,83.42
2023-01-17T06:56:33.475Z,83.20
2023-01-17T06:57:33.504Z,83.20
2023-01-17T06:58:33.481Z,83.20
2023-01-17T06:59:33.454Z,83.20
2023-01-17T07:00:34.553Z,83.62
2023-01-17T07:01:33.474Z,83.62
2023-01-17T07:02:33.434Z,83.62
2023-01-17T07:03:33.438Z,83.73
2023-01-17T07:04:33.408Z,83.20
2023-01-17T07:05:33.381Z,83.00
2023-01-17T07:06:33.405Z,83.20
2023-01-17T07:07:33.816Z,83.31
2023-01-17T07:08:33.367Z,83.62
2023-01-17T07:09:33.353Z,83.00
2023-01-17T07:10:33.325Z,83.00
2023-01-17T07:11:33.323Z,83.42
2023-01-17T07:12:33.307Z,83.42
2023-01-17T07:13:36.156Z,83.83
2023-01-17T07:14:33.354Z,83.94
2023-01-17T07:15:33.265Z,83.52
2023-01-17T07:16:33.352Z,83.62
2023-01-17T07:17:33.272Z,84.14
2023-01-17T07:18:33.260Z,84.87
2023-01-17T07:19:33.254Z,84.87
2023-01-17T07:20:33.224Z,84.14
2023-01-17T07:21:33.224Z,83.83
2023-01-17T07:22:33.195Z,84.35
2023-01-17T07:23:33.213Z,84.66
2023-01-17T07:24:33.517Z,84.77
2023-01-17T07:25:33.166Z,84.87
2023-01-17T07:26:33.194Z,85.60
2023-01-17T07:27:33.167Z,85.60
2023-01-17T07:28:33.115Z,85.60
2023-01-17T07:29:33.152Z,85.91
2023-01-17T07:30:33.116Z,85.91
2023-01-17T07:31:33.135Z,85.50
2023-01-17T07:32:33.085Z,85.39
2023-01-17T07:33:33.081Z,85.39
2023-01-17T07:34:33.065Z,85.29
2023-01-17T07:35:33.055Z,85.08
2023-01-17T07:36:33.055Z,85.19
2023-01-17T07:37:33.032Z,85.39
2023-01-17T07:38:33.081Z,86.02
2023-01-17T07:39:33.025Z,86.43
2023-01-17T07:40:41.431Z,86.54
2023-01-17T07:41:33.994Z,86.43
2023-01-17T07:42:33.027Z,86.02
2023-01-17T07:43:32.957Z,85.71
2023-01-17T07:44:32.967Z,85.91
2023-01-17T07:45:32.944Z,86.02
2023-01-17T07:46:32.995Z,86.12
2023-01-17T07:47:32.964Z,86.75
2023-01-17T07:48:32.925Z,86.65
2023-01-17T07:49:32.915Z,86.43
2023-01-17T07:50:32.893Z,86.22
2023-01-17T07:51:32.880Z,86.33
2023-01-17T07:52:32.891Z,86.37
2023-01-17T07:53:36.891Z,86.27
2023-01-17T07:54:32.906Z,86.47
2023-01-17T07:55:32.847Z,86.89
2023-01-17T07:56:32.824Z,87.20
2023-01-17T07:57:32.832Z,87.10
2023-01-17T07:58:32.824Z,87.10
2023-01-17T07:59:32.822Z,87.10
2023-01-17T08:00:32.779Z,87.20
2023-01-17T08:01:32.858Z,87.83
2023-01-17T08:02:32.755Z,88.29
2023-01-17T08:03:32.779Z,88.29
2023-01-17T08:04:32.852Z,88.08
2023-01-17T08:05:32.728Z,87.76
2023-01-17T08:06:32.720Z,87.66
2023-01-17T08:07:32.709Z,87.66
2023-01-17T08:08:32.698Z,87.66
2023-01-17T08:09:32.677Z,87.97
2023-01-17T08:10:32.696Z,88.08
2023-01-17T08:11:32.675Z,87.87
2023-01-17T08:12:32.667Z,87.35
2023-01-17T08:13:32.635Z,87.35
2023-01-17T08:14:32.721Z,87.49
2023-01-17T08:15:32.646Z,87.97
2023-01-17T08:16:32.642Z,88.53
2023-01-17T08:17:32.623Z,88.43
2023-01-17T08:18:32.573Z,88.12
2023-01-17T08:19:32.589Z,88.01
2023-01-17T08:20:32.620Z,88.01
2023-01-17T08:21:32.556Z,88.01
2023-01-17T08:22:32.554Z,88.22
2023-01-17T08:23:32.540Z,88.43
2023-01-17T08:24:32.525Z,88.53
2023-01-17T08:25:32.526Z,88.85
2023-01-17T08:26:32.515Z,88.85
2023-01-17T08:27:33.414Z,88.85
2023-01-17T08:28:32.456Z,89.16
2023-01-17T08:29:32.485Z,89.16
2023-01-17T08:30:32.444Z,89.06
2023-01-17T08:31:32.476Z,89.16
2023-01-17T08:32:32.445Z,89.26
2023-01-17T08:33:32.416Z,89.37
2023-01-17T08:34:32.406Z,89.58
2023-01-17T08:35:33.124Z,89.78
2023-01-17T08:36:32.435Z,89.68
2023-01-17T08:37:32.411Z,89.37
2023-01-17T08:38:32.346Z,89.47
2023-01-17T08:39:32.366Z,89.32
2023-01-17T08:40:32.334Z,89.12
2023-01-17T08:41:32.438Z,88.81
2023-01-17T08:42:33.127Z,88.45
2023-01-17T08:43:32.322Z,88.24
2023-01-17T08:44:32.305Z,87.83
2023-01-17T08:45:32.302Z,87.62
2023-01-17T08:46:32.970Z,87.41
2023-01-17T08:47:32.267Z,87.37
2023-01-17T08:48:32.253Z,87.48
2023-01-17T08:49:32.248Z,87.37
2023-01-17T08:50:32.236Z,87.16
2023-01-17T08:51:32.217Z,87.27
2023-01-17T08:52:32.965Z,87.54
2023-01-17T08:53:32.188Z,87.33
2023-01-17T08:54:32.177Z,86.40
2023-01-17T08:55:32.176Z,86.08
2023-01-17T08:56:32.169Z,85.77
2023-01-17T08:57:32.206Z,85.67
2023-01-17T08:58:32.149Z,86.08
2023-01-17T08:59:32.125Z,85.67
2023-01-17T09:00:32.137Z,84.90
2023-01-17T09:01:32.224Z,84.69
2023-01-17T09:02:32.116Z,84.48
2023-01-17T09:03:32.088Z,84.17
2023-01-17T09:04:32.158Z,84.03
2023-01-17T09:05:32.087Z,83.82
2023-01-17T09:06:32.075Z,83.51
2023-01-17T09:07:32.139Z,83.16
2023-01-17T09:08:32.045Z,82.74
2023-01-17T09:09:32.019Z,82.64
2023-01-17T09:10:32.051Z,82.22
2023-01-17T09:11:32.289Z,81.98
2023-01-17T09:12:32.008Z,81.15
2023-01-17T09:13:31.990Z,80.73
2023-01-17T09:14:31.990Z,80.52
2023-01-17T09:15:31.960Z,80.32
2023-01-17T09:16:31.994Z,80.38
2023-01-17T09:17:31.956Z,79.97
2023-01-17T09:18:31.918Z,79.97
2023-01-17T09:19:31.911Z,79.55
2023-01-17T09:20:31.910Z,78.99
2023-01-17T09:21:31.941Z,78.58
2023-01-17T09:22:31.890Z,78.89
2023-01-17T09:23:31.877Z,78.99
2023-01-17T09:24:31.885Z,78.99
2023-01-17T09:25:31.871Z,78.68
2023-01-17T09:26:31.828Z,78.27
2023-01-17T09:27:31.925Z,77.75
2023-01-17T09:28:31.802Z,77.85
2023-01-17T09:29:31.814Z,78.06
2023-01-17T09:30:31.853Z,78.27
2023-01-17T09:31:31.791Z,77.95
2023-01-17T09:32:31.771Z,76.92
2023-01-17T09:33:31.762Z,77.44
2023-01-17T09:34:31.751Z,77.40
2023-01-17T09:35:31.724Z,77.82
2023-01-17T09:36:31.838Z,76.99
2023-01-17T09:37:31.731Z,76.89
2023-01-17T09:38:31.699Z,77.09
2023-01-17T09:39:31.688Z,76.78
2023-01-17T09:40:31.721Z,76.37
2023-01-17T09:41:31.662Z,76.16
2023-01-17T09:42:31.939Z,76.26
2023-01-17T09:43:31.672Z,76.57
2023-01-17T09:44:31.649Z,76.47
2023-01-17T09:45:31.627Z,76.68
2023-01-17T09:46:31.629Z,76.78
2023-01-17T09:47:31.655Z,76.26
2023-01-17T09:48:31.600Z,76.57
2023-01-17T09:49:31.595Z,75.95
2023-01-17T09:50:31.606Z,75.67
2023-01-17T09:51:31.606Z,75.46
2023-01-17T09:52:31.554Z,76.26
2023-01-17T09:53:31.550Z,75.95
2023-01-17T09:54:31.511Z,76.89
2023-01-17T09:55:31.780Z,76.16
2023-01-17T09:56:31.493Z,74.91
2023-01-17T09:57:31.476Z,74.40
2023-01-17T09:58:31.500Z,73.36
2023-01-17T09:59:35.428Z,72.11
2023-01-17T10:00:31.467Z,72.01
2023-01-17T10:01:31.524Z,71.94
2023-01-17T10:02:31.546Z,71.83
2023-01-17T10:03:31.491Z,70.90
2023-01-17T10:04:31.407Z,71.11
2023-01-17T10:05:31.392Z,71.62
2023-01-17T10:06:31.379Z,71.42
2023-01-17T10:07:31.379Z,71.21
2023-01-17T10:08:31.386Z,71.31
2023-01-17T10:09:31.342Z,72.17
2023-01-17T10:10:31.356Z,72.25
2023-01-17T10:11:31.341Z,71.55
2023-01-17T10:12:31.313Z,71.24
2023-01-17T10:13:31.323Z,71.55
2023-01-17T10:14:31.294Z,71.66
2023-01-17T10:15:31.303Z,71.42
2023-01-17T10:16:31.297Z,70.69
2023-01-17T10:17:31.265Z,70.69
2023-01-17T10:18:31.281Z,70.90
2023-01-17T10:19:31.307Z,71.62
2023-01-17T10:20:31.272Z,71.66
2023-01-17T10:21:31.217Z,72.49
2023-01-17T10:22:31.234Z,73.43
2023-01-17T10:23:31.201Z,73.11
2023-01-17T10:24:31.203Z,72.49
2023-01-17T10:25:31.195Z,72.07
2023-01-17T10:26:31.158Z,71.34
2023-01-17T10:27:31.161Z,71.34
2023-01-17T10:28:31.226Z,72.17
2023-01-17T10:29:31.138Z,71.34
2023-01-17T10:30:31.171Z,71.76
2023-01-17T10:31:31.107Z,71.45
2023-01-17T10:32:31.085Z,71.31
2023-01-17T10:33:31.072Z,70.69
2023-01-17T10:34:31.061Z,70.90
2023-01-17T10:35:31.085Z,70.38
2023-01-17T10:36:31.045Z,69.96
2023-01-17T10:37:31.039Z,70.07
2023-01-17T10:38:31.045Z,68.82
2023-01-17T10:39:31.085Z,69.76
2023-01-17T10:40:31.036Z,69.62
2023-01-17T10:41:31.008Z,67.89
2023-01-17T10:42:30.995Z,67.79
2023-01-17T10:43:31.015Z,68.41
2023-01-17T10:44:30.974Z,68.38
2023-01-17T10:45:30.991Z,68.07
2023-01-17T10:46:30.943Z,67.65
2023-01-17T10:47:30.920Z,67.86
2023-01-17T10:48:30.939Z,67.55
2023-01-17T10:49:30.904Z,67.34
2023-01-17T10:50:30.922Z,66.93
2023-01-17T10:51:30.885Z,67.58
2023-01-17T10:52:30.875Z,66.75
2023-01-17T10:53:30.864Z,67.47
2023-01-17T10:54:30.875Z,67.79
2023-01-17T10:55:30.838Z,66.93
2023-01-17T10:56:30.944Z,67.03
2023-01-17T10:57:30.830Z,67.65
2023-01-17T10:58:30.801Z,67.24
2023-01-17T10:59:30.901Z,67.44
2023-01-17T11:00:30.803Z,67.65
2023-01-17T11:01:30.836Z,67.03
2023-01-17T11:02:30.824Z,67.47
2023-01-17T11:03:30.772Z,67.89
2023-01-17T11:04:30.741Z,68.10
2023-01-17T11:05:30.719Z,67.89
2023-01-17T11:06:30.712Z,67.89
2023-01-17T11:07:30.691Z,68.38
2023-01-17T11:08:30.682Z,68.17
2023-01-17T11:09:30.673Z,67.47
2023-01-17T11:10:30.661Z,67.86
2023-01-17T11:11:30.644Z,68.48
2023-01-17T11:12:30.642Z,69.21
2023-01-17T11:13:30.651Z,68.17
2023-01-17T11:14:31.340Z,67.96
2023-01-17T11:15:30.691Z,67.34
2023-01-17T11:16:30.584Z,67.96
2023-01-17T11:17:30.645Z,67.65
2023-01-17T11:18:30.594Z,67.68
2023-01-17T11:19:30.567Z,68.10
2023-01-17T11:20:30.552Z,68.30
2023-01-17T11:21:30.544Z,68.82
2023-01-17T11:22:30.523Z,68.51
2023-01-17T11:23:30.515Z,68.72
2023-01-17T11:24:30.536Z,68.51
2023-01-17T11:25:30.477Z,68.65
2023-01-17T11:26:30.476Z,69.27
2023-01-17T11:27:30.470Z,69.68
2023-01-17T11:28:30.624Z,69.68
2023-01-17T11:29:30.435Z,69.68
2023-01-17T11:30:30.465Z,70.20
2023-01-17T11:31:30.416Z,70.51
2023-01-17T11:32:30.423Z,70.62
2023-01-17T11:33:31.599Z,70.51
2023-01-17T11:34:30.384Z,70.51
2023-01-17T11:35:30.391Z,71.03
2023-01-17T11:36:30.372Z,70.51
2023-01-17T11:37:30.356Z,70.31
2023-01-17T11:38:30.335Z,69.89
2023-01-17T11:39:30.344Z,69.89
2023-01-17T11:40:30.353Z,69.58
2023-01-17T11:41:30.306Z,69.68
2023-01-17T11:42:30.331Z,69.79
2023-01-17T11:43:30.293Z,70.20
2023-01-17T11:44:30.302Z,70.93
2023-01-17T11:45:30.317Z,71.24
2023-01-17T11:46:30.320Z,69.79
2023-01-17T11:47:30.236Z,69.58
2023-01-17T11:48:30.253Z,69.48
2023-01-17T11:49:30.242Z,69.79
2023-01-17T11:50:30.955Z,70.31
2023-01-17T11:51:30.262Z,70.00
2023-01-17T11:52:30.203Z,70.00
2023-01-17T11:53:30.179Z,69.68
2023-01-17T11:54:30.657Z,69.24
2023-01-17T11:55:30.158Z,68.93
2023-01-17T11:56:30.182Z,69.45
2023-01-17T11:57:30.253Z,69.65
2023-01-17T11:58:30.125Z,69.34
2023-01-17T11:59:30.161Z,68.27
2023-01-17T12:00:30.107Z,68.17
2023-01-17T12:01:30.102Z,68.07
2023-01-17T12:02:30.097Z,68.38
2023-01-17T12:03:30.095Z,68.76
2023-01-17T12:04:30.073Z,67.30
2023-01-17T12:05:30.055Z,66.17
2023-01-17T12:06:30.016Z,66.89
2023-01-17T12:07:30.008Z,67.41
2023-01-17T12:08:30.020Z,66.27
2023-01-17T12:09:30.004Z,66.68
2023-01-17T12:10:29.972Z,66.78
2023-01-17T12:11:30.015Z,67.17
2023-01-17T12:12:29.947Z,66.75
2023-01-17T12:13:29.944Z,66.86
2023-01-17T12:14:29.946Z,67.17
2023-01-17T12:15:30.003Z,67.38
2023-01-17T12:16:29.945Z,66.65
2023-01-17T12:17:29.926Z,66.65
2023-01-17T12:18:29.908Z,67.48
2023-01-17T12:19:29.896Z,67.45
2023-01-17T12:20:29.885Z,66.41
2023-01-17T12:21:29.876Z,64.86
2023-01-17T12:22:29.866Z,66.21
2023-01-17T12:23:29.857Z,67.03
2023-01-17T12:24:29.827Z,67.03
2023-01-17T12:25:29.829Z,66.31
2023-01-17T12:26:29.904Z,65.28
2023-01-17T12:27:29.777Z,64.45
2023-01-17T12:28:29.778Z,64.76
2023-01-17T12:29:29.780Z,63.82
2023-01-17T12:30:29.755Z,63.82
2023-01-17T12:31:29.774Z,62.37
2023-01-17T12:32:29.791Z,62.68
2023-01-17T12:33:29.710Z,63.20
2023-01-17T12:34:29.726Z,64.14
2023-01-17T12:35:29.707Z,64.24
2023-01-17T12:36:29.722Z,64.65
2023-01-17T12:37:29.728Z,65.07
2023-01-17T12:38:32.965Z,65.28
2023-01-17T12:39:29.666Z,65.90
2023-01-17T12:40:29.651Z,65.69
2023-01-17T12:41:29.938Z,65.59
2023-01-17T12:42:29.620Z,65.69
2023-01-17T12:43:29.602Z,65.28
2023-01-17T12:44:29.619Z,65.07
2023-01-17T12:45:29.627Z,63.93
2023-01-17T12:46:29.873Z,64.14
2023-01-17T12:47:29.588Z,64.65
2023-01-17T12:48:29.552Z,64.45
2023-01-17T12:49:29.557Z,63.82
2023-01-17T12:50:29.574Z,63.93
2023-01-17T12:51:29.537Z,64.14
2023-01-17T12:52:29.510Z,64.55